Terminal Aerodrome Forecast
Issued by NWS Upton, NY

Home | Current Version | Previous Version | Text Only | Print | Product List | Glossary On
Versions: 1 2 3 4 5 6 7 8 9 10 11 12 13 14 15 16 17 18 19 20 21 22 23 24 25 26 27 28 29 30 31 32 33 34 35
022
FTUS41 KOKX 022341
TAFBDR
TAF
KBDR 022341Z 0300/0324 27011G18KT P6SM BKN070
     FM030400 29011KT P6SM SCT040
     FM031300 31012G19KT P6SM SCT040
     FM031800 31017G26KT P6SM BKN040
     FM032300 31012G21KT P6SM SCT040=

USA.gov is the U.S. government's official web portal to all federal, state and local government web resources and services.